Time;durP1;ratioP1;P1;durP2;ratioP2;P2;SDS_P1;SDS_P2;PMS_P1;PMS_P2;Temp;Humidity;BMP_temperature;BMP_pressure;BME280_temperature;BME280_humidity;BME280_pressure;Samples;Min_cycle;Max_cycle;Signal;HPM_P1;HPM_P2
2022/08/24 00:01:05;;;;;;;29.67;1.67;;;;;;;20.35;64.29;100287.41;4945310;28;20496;-50
2022/08/24 00:03:33;;;;;;;1.17;1.07;;;;;;;20.15;64.79;100289.72;4948018;29;20464;-50
2022/08/24 00:06:02;;;;;;;8.00;2.13;;;;;;;20.14;64.17;100283.47;4957672;28;20469;-50
2022/08/24 00:08:29;;;;;;;1.30;1.20;;;;;;;20.30;64.05;100272.50;4951668;28;20476;-51
2022/08/24 00:10:58;;;;;;;1.83;1.30;;;;;;;20.27;64.06;100278.09;4946597;28;20457;-50
2022/08/24 00:13:25;;;;;;;6.13;1.73;;;;;;;20.09;64.56;100277.53;4951219;28;20463;-50
2022/08/24 00:15:54;;;;;;;7.23;1.00;;;;;;;20.10;64.33;100276.56;4947073;29;20455;-50
2022/08/24 00:18:21;;;;;;;0.90;0.70;;;;;;;19.91;65.15;100278.78;4941442;28;20475;-50
2022/08/24 00:20:48;;;;;;;2.27;1.67;;;;;;;20.16;64.46;100289.66;4942109;28;20997;-50
2022/08/24 00:23:15;;;;;;;3.83;1.67;;;;;;;20.12;64.32;100285.41;4947813;29;20833;-51
2022/08/24 00:25:42;;;;;;;7.70;1.97;;;;;;;19.88;65.49;100292.50;4949146;29;20455;-50
2022/08/24 00:28:08;;;;;;;2.60;1.23;;;;;;;20.08;65.69;100279.38;4941818;28;20860;-50
2022/08/24 00:30:35;;;;;;;3.13;1.90;;;;;;;19.93;66.51;100279.53;4942182;28;20832;-50
2022/08/24 00:33:02;;;;;;;2.03;1.93;;;;;;;19.92;66.25;100289.47;4947806;29;20458;-51
2022/08/24 00:35:28;;;;;;;1.10;1.00;;;;;;;19.67;66.92;100287.53;4947373;29;20462;-51
2022/08/24 00:37:55;;;;;;;7.10;1.23;;;;;;;19.75;66.57;100282.53;4940975;28;20482;-50
2022/08/24 00:40:34;;;;;;;4.60;2.00;;;;;;;19.93;66.19;100287.63;4943206;28;20497;-51
2022/08/24 00:43:03;;;;;;;2.33;0.90;;;;;;;19.66;66.52;100283.13;4946836;29;20490;-50
2022/08/24 00:46:07;;;;;;;1.50;1.40;;;;;;;19.44;66.41;100285.44;4944971;28;20456;-50
2022/08/24 00:48:39;;;;;;;2.07;1.57;;;;;;;19.24;67.38;100289.47;4945221;28;20843;-49
2022/08/24 00:51:15;;;;;;;0.73;0.73;;;;;;;19.36;66.86;100287.81;4950072;28;20455;-49
2022/08/24 00:53:47;;;;;;;1.30;1.10;;;;;;;19.14;67.70;100291.88;4951713;29;20451;-50
2022/08/24 00:56:22;;;;;;;1.67;1.30;;;;;;;18.93;68.75;100288.72;4948935;29;20471;-49
2022/08/24 00:58:54;;;;;;;3.20;1.20;;;;;;;18.89;68.88;100289.00;4944798;28;20477;-48
2022/08/24 01:01:23;;;;;;;5.00;1.90;;;;;;;18.94;69.13;100292.28;4945379;28;20545;-49
2022/08/24 01:03:50;;;;;;;4.83;1.50;;;;;;;18.95;69.17;100288.63;4951193;29;20463;-49
2022/08/24 01:06:22;;;;;;;1.83;1.60;;;;;;;18.80;69.36;100290.47;4966143;28;20438;-49
2022/08/24 01:08:49;;;;;;;2.90;1.70;;;;;;;18.75;69.62;100297.06;4950651;28;20548;-48
2022/08/24 01:11:25;;;;;;;3.07;2.43;;;;;;;18.60;70.17;100294.34;4955011;28;20474;-49
2022/08/24 01:13:52;;;;;;;1.33;1.23;;;;;;;18.69;69.78;100300.16;4949581;28;20460;-49
2022/08/24 01:18:48;;;;;;;1.63;1.10;;;;;;;18.68;69.69;100299.28;4951035;29;20828;-50
2022/08/24 01:19:25;;;;;;;1.33;0.97;;;;;;;18.54;70.57;100307.31;4949159;29;20471;-49
2022/08/24 01:22:01;;;;;;;3.80;1.53;;;;;;;18.48;70.73;100308.53;4945501;29;20562;-49
2022/08/24 01:24:27;;;;;;;5.70;1.53;;;;;;;18.56;70.46;100305.41;4944555;28;20551;-48
2022/08/24 01:26:54;;;;;;;4.27;1.00;;;;;;;18.58;70.56;100315.09;4947557;29;20472;-49
2022/08/24 01:29:26;;;;;;;1.53;1.10;;;;;;;18.54;70.57;100312.72;4951110;29;20478;-50
2022/08/24 01:31:54;;;;;;;2.40;1.97;;;;;;;18.39;71.54;100303.75;4947530;29;20447;-51
2022/08/24 01:34:20;;;;;;;3.50;1.30;;;;;;;18.20;71.57;100309.34;4943901;28;20513;-51
2022/08/24 01:36:50;;;;;;;5.40;1.33;;;;;;;18.10;71.99;100310.88;4947630;28;20452;-50
2022/08/24 01:39:24;;;;;;;15.57;1.47;;;;;;;18.15;71.79;100310.59;4950304;28;20471;-50
2022/08/24 01:41:50;;;;;;;13.07;1.47;;;;;;;18.23;72.16;100305.63;4948732;29;20996;-50
2022/08/24 01:44:19;;;;;;;3.43;1.90;;;;;;;18.18;72.41;100311.25;4943759;28;20509;-50
2022/08/24 01:46:48;;;;;;;1.57;1.47;;;;;;;18.31;71.81;100316.78;4945280;28;20467;-51
2022/08/24 01:49:16;;;;;;;7.30;1.50;;;;;;;18.27;72.03;100312.56;4950141;29;20885;-51
2022/08/24 01:51:44;;;;;;;6.27;2.20;;;;;;;18.27;71.83;100320.63;4948789;28;20466;-50
2022/08/24 01:54:13;;;;;;;2.53;1.33;;;;;;;18.28;72.03;100315.16;4943643;28;20538;-50
2022/08/24 01:56:40;;;;;;;2.07;1.97;;;;;;;18.22;72.23;100322.69;4944125;28;20461;-50
2022/08/24 01:59:07;;;;;;;2.40;1.70;;;;;;;18.25;71.78;100322.53;4950226;28;20487;-50
2022/08/24 02:01:37;;;;;;;4.13;1.00;;;;;;;18.35;71.61;100323.69;4950159;29;20494;-50
2022/08/24 02:04:05;;;;;;;2.30;1.07;;;;;;;18.21;72.40;100321.84;4944491;29;20863;-50
2022/08/24 02:06:35;;;;;;;1.27;1.17;;;;;;;18.03;72.81;100323.81;4969081;28;20995;-50
2022/08/24 02:09:03;;;;;;;1.27;1.17;;;;;;;17.95;72.91;100322.50;4947597;28;20478;-51
2022/08/24 02:11:30;;;;;;;2.07;1.40;;;;;;;18.01;71.70;100322.16;4954845;28;20450;-50
2022/08/24 02:13:57;;;;;;;1.70;1.60;;;;;;;17.91;73.12;100323.66;4947215;28;20460;-50
2022/08/24 02:16:26;;;;;;;1.43;1.33;;;;;;;17.75;73.71;100327.22;4949914;29;20921;-50
2022/08/24 02:18:52;;;;;;;2.07;1.70;;;;;;;17.81;73.52;100331.38;4946337;29;20471;-50
2022/08/24 02:21:19;;;;;;;4.37;2.20;;;;;;;17.85;73.52;100326.72;4943061;28;20957;-50
2022/08/24 02:23:46;;;;;;;1.90;1.67;;;;;;;17.61;74.14;100332.50;4946681;28;20460;-50
2022/08/24 02:26:12;;;;;;;10.40;1.13;;;;;;;17.57;74.14;100339.03;4949480;29;20458;-51
2022/08/24 02:28:40;;;;;;;15.23;1.77;;;;;;;17.64;73.95;100336.84;4946056;29;20495;-50
2022/08/24 02:31:11;;;;;;;2.07;1.87;;;;;;;17.54;74.57;100341.00;4943294;28;20455;-51
2022/08/24 02:33:39;;;;;;;1.60;1.50;;;;;;;17.52;74.81;100334.84;4945576;28;20448;-50
2022/08/24 02:36:08;;;;;;;1.63;1.17;;;;;;;17.38;75.16;100341.84;4949786;29;20506;-51
2022/08/24 02:38:52;;;;;;;4.50;2.17;;;;;;;17.55;74.81;100334.69;4949790;28;20482;-50
2022/08/24 02:41:21;;;;;;;2.10;1.53;;;;;;;17.40;75.18;100342.63;4943831;29;20463;-51
2022/08/24 02:43:48;;;;;;;3.47;2.93;;;;;;;17.34;74.97;100334.94;4942770;28;20477;-51
2022/08/24 02:46:20;;;;;;;10.83;2.50;;;;;;;17.27;75.09;100332.66;4948367;28;20453;-51
2022/08/24 02:48:46;;;;;;;2.37;1.80;;;;;;;17.34;74.97;100329.56;4949138;29;20479;-51
2022/08/24 02:51:34;;;;;;;11.40;2.17;;;;;;;17.35;75.01;100335.78;4947485;29;20857;-51
2022/08/24 02:54:11;;;;;;;3.87;1.40;;;;;;;17.24;75.74;100332.81;4942756;28;20521;-51
2022/08/24 02:56:38;;;;;;;2.80;1.80;;;;;;;17.29;75.57;100341.53;4942898;28;20468;-51
2022/08/24 02:59:04;;;;;;;1.20;1.10;;;;;;;17.26;75.90;100341.66;4942554;29;20479;-51
2022/08/24 03:01:31;;;;;;;2.90;1.50;;;;;;;17.16;76.35;100338.63;4942751;28;20456;-51
2022/08/24 03:03:58;;;;;;;1.27;1.17;;;;;;;17.13;76.67;100342.38;4942292;29;20451;-51
2022/08/24 03:06:24;;;;;;;2.70;1.40;;;;;;;17.07;76.76;100347.19;4968176;28;21050;-51
2022/08/24 03:08:51;;;;;;;2.00;1.53;;;;;;;17.13;76.84;100341.47;4948045;28;20504;-51
2022/08/24 03:11:22;;;;;;;8.37;1.60;;;;;;;17.14;76.24;100345.91;4952908;28;20501;-51
2022/08/24 03:13:54;;;;;;;1.00;0.90;;;;;;;16.88;76.91;100345.50;4946593;28;20455;-51
2022/08/24 03:16:21;;;;;;;1.67;1.57;;;;;;;16.84;76.65;100346.59;4948852;29;20461;-51
2022/08/24 03:18:48;;;;;;;1.67;1.57;;;;;;;16.70;77.71;100348.28;4944892;29;20574;-51
2022/08/24 03:21:15;;;;;;;5.17;1.93;;;;;;;16.63;77.54;100346.88;4942035;28;20954;-51
2022/08/24 03:23:41;;;;;;;1.67;1.57;;;;;;;16.90;76.84;100347.25;4945957;28;20555;-51
2022/08/24 03:26:08;;;;;;;2.27;1.90;;;;;;;16.88;76.61;100348.19;4948725;29;20489;-49
2022/08/24 03:28:34;;;;;;;10.83;1.87;;;;;;;16.80;77.51;100354.91;4944787;29;20490;-51
2022/08/24 03:31:02;;;;;;;2.90;1.17;;;;;;;16.87;77.61;100341.09;4942121;28;20459;-49
2022/08/24 03:33:29;;;;;;;1.53;1.43;;;;;;;16.74;78.06;100329.28;4945639;28;20448;-49
2022/08/24 03:35:55;;;;;;;12.93;2.57;;;;;;;16.73;78.72;100332.03;4948357;29;20955;-50
2022/08/24 03:38:22;;;;;;;2.17;1.97;;;;;;;16.66;79.25;100334.13;4945064;28;20471;-50
2022/08/24 03:40:49;;;;;;;1.63;1.53;;;;;;;16.65;78.68;100321.66;4941849;28;20508;-50
2022/08/24 03:46:06;;;;;;;2.37;1.47;;;;;;;16.72;78.70;100333.88;4948598;29;20459;-50
2022/08/24 03:48:32;;;;;;;1.47;1.20;;;;;;;16.87;78.40;100335.72;4947954;29;21027;-50
2022/08/24 03:51:00;;;;;;;2.60;1.50;;;;;;;16.87;78.11;100338.41;4942046;29;20451;-50
2022/08/24 03:53:26;;;;;;;8.43;1.60;;;;;;;17.04;77.40;100331.25;4941536;28;20448;-50
2022/08/24 03:55:53;;;;;;;7.93;2.10;;;;;;;16.80;78.73;100339.66;4947403;28;20531;-50
2022/08/24 03:58:19;;;;;;;0.90;0.90;;;;;;;16.83;78.32;100341.31;4947843;28;20838;-50
2022/08/24 04:00:46;;;;;;;4.60;2.33;;;;;;;16.94;77.95;100346.13;4942521;29;20456;-50
2022/08/24 04:03:12;;;;;;;3.33;2.40;;;;;;;16.72;78.33;100341.00;4941457;28;21031;-50
2022/08/24 04:05:41;;;;;;;3.60;2.13;;;;;;;16.66;78.73;100347.56;4961954;28;20814;-50
2022/08/24 04:08:08;;;;;;;2.07;1.97;;;;;;;16.63;78.71;100350.41;4957188;28;21000;-51
2022/08/24 04:10:34;;;;;;;1.43;1.30;;;;;;;16.62;79.11;100347.81;4943139;29;20968;-51
2022/08/24 04:13:01;;;;;;;2.90;2.30;;;;;;;16.70;78.83;100350.97;4954630;28;20451;-50
2022/08/24 04:15:30;;;;;;;2.20;2.00;;;;;;;16.57;79.50;100353.41;4943020;29;20451;-50
2022/08/24 04:17:57;;;;;;;2.30;2.20;;;;;;;16.63;80.21;100349.53;4941040;28;20845;-50
2022/08/24 04:20:24;;;;;;;2.50;2.40;;;;;;;16.72;79.25;100352.66;4945559;28;20977;-50
2022/08/24 04:22:51;;;;;;;4.10;2.80;;;;;;;16.82;78.87;100348.50;4947671;29;20506;-50
2022/08/24 04:25:19;;;;;;;9.10;1.93;;;;;;;16.80;79.11;100349.53;4944183;29;20514;-50
2022/08/24 04:27:50;;;;;;;1.63;1.17;;;;;;;16.77;79.11;100347.91;4941009;28;20508;-50
2022/08/24 04:30:17;;;;;;;4.30;2.40;;;;;;;16.81;78.94;100346.78;4944108;28;20555;-50
2022/08/24 04:32:44;;;;;;;17.83;3.40;;;;;;;16.82;78.73;100350.31;4946589;29;20454;-50
2022/08/24 04:35:10;;;;;;;25.43;2.77;;;;;;;17.54;76.27;100362.50;4945006;29;20487;-50
2022/08/24 04:37:37;;;;;;;7.00;1.47;;;;;;;17.18;77.51;100359.09;4941165;28;20475;-50
2022/08/24 04:40:04;;;;;;;2.30;2.10;;;;;;;17.08;78.50;100354.28;4944002;28;20463;-50
2022/08/24 04:42:31;;;;;;;1.23;1.13;;;;;;;16.78;79.01;100363.06;4947723;29;20511;-50
2022/08/24 04:44:58;;;;;;;1.43;1.33;;;;;;;16.74;79.33;100363.31;4945560;29;20580;-51
2022/08/24 04:47:25;;;;;;;1.50;1.40;;;;;;;16.85;79.11;100364.44;4941099;28;20451;-50
2022/08/24 04:49:51;;;;;;;2.00;1.70;;;;;;;16.59;79.69;100364.94;4943598;28;20460;-51
2022/08/24 04:52:18;;;;;;;3.50;2.13;;;;;;;16.77;79.46;100371.19;4948189;29;20456;-50
2022/08/24 04:54:44;;;;;;;1.97;1.33;;;;;;;16.93;79.34;100369.41;4945689;29;20454;-50
2022/08/24 04:57:10;;;;;;;1.53;1.43;;;;;;;16.75;80.21;100373.97;4941144;28;20458;-50
2022/08/24 04:59:43;;;;;;;1.90;1.80;;;;;;;16.97;79.83;100378.19;4942670;28;20452;-50
2022/08/24 05:02:09;;;;;;;4.83;2.57;;;;;;;17.07;79.29;100379.44;4947341;29;20499;-50
2022/08/24 05:04:36;;;;;;;2.30;1.67;;;;;;;17.17;79.40;100384.22;4946235;29;20494;-50
2022/08/24 05:07:03;;;;;;;5.03;1.83;;;;;;;17.20;79.47;100391.25;4967009;28;20451;-50
2022/08/24 05:09:30;;;;;;;1.53;1.43;;;;;;;17.25;79.32;100393.66;4941453;28;20993;-50
2022/08/24 05:11:57;;;;;;;9.33;1.93;;;;;;;17.24;79.47;100392.81;4956033;28;20463;-51
2022/08/24 05:14:23;;;;;;;3.23;1.90;;;;;;;17.47;78.49;100395.09;4941316;28;20456;-51
2022/08/24 05:16:54;;;;;;;9.37;2.70;;;;;;;17.64;77.83;100393.28;4941123;29;21004;-50
2022/08/24 05:19:22;;;;;;;1.40;1.30;;;;;;;17.89;77.38;100384.75;4941036;28;20480;-50
2022/08/24 05:21:49;;;;;;;1.70;1.13;;;;;;;18.09;76.36;100392.50;4946453;28;20838;-51
2022/08/24 05:24:17;;;;;;;3.00;1.53;;;;;;;18.47;75.31;100390.25;4946972;29;20521;-51
2022/08/24 05:26:44;;;;;;;3.20;1.90;;;;;;;18.72;74.20;100395.09;4943998;29;20451;-51
2022/08/24 05:29:10;;;;;;;5.33;2.27;;;;;;;18.89;73.25;100396.75;4944137;28;20937;-51
2022/08/24 05:31:37;;;;;;;1.87;1.77;;;;;;;18.93;72.34;100396.47;4949307;28;20956;-51
2022/08/24 05:34:04;;;;;;;2.20;2.10;;;;;;;18.93;72.62;100401.88;4950511;29;20453;-51
2022/08/24 05:36:37;;;;;;;3.23;1.67;;;;;;;18.97;72.70;100407.94;4945398;29;20831;-51
2022/08/24 05:39:07;;;;;;;1.20;1.10;;;;;;;19.08;72.17;100400.06;4950511;28;20563;-51
2022/08/24 05:41:41;;;;;;;1.87;1.60;;;;;;;19.24;72.17;100400.81;4948120;29;20452;-51
2022/08/24 05:44:12;;;;;;;2.13;1.93;;;;;;;19.42;71.68;100403.31;4943887;28;20494;-51
2022/08/24 05:46:38;;;;;;;6.00;1.70;;;;;;;19.56;71.29;100403.34;4945173;28;20452;-51
2022/08/24 05:49:06;;;;;;;4.67;2.23;;;;;;;19.76;70.62;100402.94;4950402;29;20476;-51
2022/08/24 05:51:34;;;;;;;15.43;2.13;;;;;;;19.80;70.23;100398.19;4949375;29;20455;-50
2022/08/24 05:54:03;;;;;;;6.00;2.37;;;;;;;20.11;69.15;100405.13;4944170;28;20459;-51
2022/08/24 05:56:29;;;;;;;1.57;1.30;;;;;;;20.18;67.98;100400.22;4943733;28;20448;-51
2022/08/24 05:58:57;;;;;;;1.73;1.60;;;;;;;20.19;67.94;100407.34;4949841;28;20522;-51
2022/08/24 06:01:25;;;;;;;1.70;1.60;;;;;;;20.17;68.04;100410.16;4950303;29;20479;-51
2022/08/24 06:03:54;;;;;;;14.10;1.80;;;;;;;20.30;67.78;100412.91;4944729;29;20520;-51
2022/08/24 06:06:22;;;;;;;1.80;1.10;;;;;;;20.34;67.19;100409.88;4969234;28;21015;-51
2022/08/24 06:08:50;;;;;;;13.10;1.60;;;;;;;20.44;67.26;100409.31;4949434;28;20811;-52
2022/08/24 06:11:26;;;;;;;1.30;1.20;;;;;;;20.30;67.49;100408.38;4953183;28;20822;-51
2022/08/24 06:14:03;;;;;;;1.57;1.47;;;;;;;20.28;67.84;100412.09;4947314;28;20452;-51
2022/08/24 06:16:37;;;;;;;7.43;1.90;;;;;;;20.32;67.21;100408.25;4950029;29;20456;-51
2022/08/24 06:19:05;;;;;;;4.10;1.50;;;;;;;20.36;67.47;100407.06;4948053;29;20554;-51
2022/08/24 06:21:32;;;;;;;1.43;1.20;;;;;;;20.40;68.23;100412.16;4943197;28;20462;-51
2022/08/24 06:23:59;;;;;;;12.10;1.73;;;;;;;20.44;67.85;100407.47;4944400;28;20495;-51
2022/08/24 06:29:16;;;;;;;13.53;2.27;;;;;;;20.54;68.13;100399.59;4949526;29;20574;-52
2022/08/24 06:31:45;;;;;;;4.90;2.43;;;;;;;20.52;67.45;100410.50;4945516;29;20457;-51
2022/08/24 06:34:14;;;;;;;2.67;2.47;;;;;;;20.41;67.81;100408.50;4942901;28;20451;-52
2022/08/24 06:36:40;;;;;;;22.43;2.73;;;;;;;20.63;67.21;100409.78;4946560;28;20452;-51
2022/08/24 06:39:08;;;;;;;14.43;2.93;;;;;;;20.76;67.17;100410.66;4949326;28;20472;-52
2022/08/24 06:41:38;;;;;;;7.50;2.17;;;;;;;20.72;66.75;100411.84;4946394;29;20483;-53
2022/08/24 06:44:06;;;;;;;11.63;2.07;;;;;;;20.78;66.54;100416.81;4942703;28;20494;-51
2022/08/24 06:46:35;;;;;;;12.53;2.53;;;;;;;20.88;66.03;100417.94;4945234;28;20463;-52
2022/08/24 06:49:01;;;;;;;14.83;2.70;;;;;;;20.87;65.70;100420.75;4949357;29;20483;-52
2022/08/24 06:51:28;;;;;;;8.40;3.03;;;;;;;20.90;65.96;100417.81;4947360;29;20451;-52
2022/08/24 06:53:54;;;;;;;22.23;3.30;;;;;;;21.14;65.50;100415.25;4942584;28;20458;-52
2022/08/24 06:56:21;;;;;;;1.90;0.83;;;;;;;21.22;65.21;100412.84;4944668;28;20833;-52
2022/08/24 06:58:48;;;;;;;2.47;2.27;;;;;;;21.23;65.25;100420.84;4949190;28;20483;-52
2022/08/24 07:01:18;;;;;;;3.37;2.07;;;;;;;21.21;65.87;100422.81;4947458;29;20493;-52
2022/08/24 07:03:45;;;;;;;36.57;3.90;;;;;;;21.50;64.94;100419.88;4942653;28;20498;-52
2022/08/24 07:06:13;;;;;;;18.73;3.33;;;;;;;21.64;64.33;100421.59;4967533;28;20805;-52
2022/08/24 07:08:41;;;;;;;4.73;2.10;;;;;;;21.46;64.74;100421.09;4950119;28;21019;-52
2022/08/24 07:11:09;;;;;;;6.30;2.60;;;;;;;21.63;64.85;100428.84;4950687;28;20455;-52
2022/08/24 07:13:36;;;;;;;13.73;3.37;;;;;;;21.73;64.64;100426.34;4948639;29;20962;-52
2022/08/24 07:16:03;;;;;;;3.00;1.53;;;;;;;21.91;64.20;100429.53;4948819;29;21024;-52
2022/08/24 07:18:30;;;;;;;2.87;2.67;;;;;;;22.23;63.13;100430.78;4942852;29;20482;-52
2022/08/24 07:20:59;;;;;;;4.20;2.87;;;;;;;22.18;63.39;100424.84;4942394;28;20468;-51
2022/08/24 07:23:27;;;;;;;14.53;2.40;;;;;;;22.33;63.38;100431.81;4947783;28;20575;-52
2022/08/24 07:26:11;;;;;;;4.10;1.73;;;;;;;22.52;62.37;100438.56;4948578;29;20453;-52
2022/08/24 07:28:47;;;;;;;5.40;1.90;;;;;;;22.50;62.46;100437.81;4968747;23;21022;-51
2022/08/24 07:31:14;;;;;;;2.00;1.40;;;;;;;22.47;62.68;100442.47;4969341;28;20455;-52
2022/08/24 07:33:41;;;;;;;4.47;2.40;;;;;;;22.99;61.38;100435.78;4966444;28;20481;-51
2022/08/24 07:36:07;;;;;;;2.90;2.17;;;;;;;23.12;61.53;100432.97;4963851;28;20451;-51
2022/08/24 07:38:34;;;;;;;1.33;1.23;;;;;;;23.12;61.84;100440.25;4966497;28;20478;-51
2022/08/24 07:41:01;;;;;;;6.43;2.00;;;;;;;23.00;62.06;100433.94;4960877;28;20839;-52
2022/08/24 07:43:48;;;;;;;5.50;2.03;;;;;;;23.42;61.23;100443.25;4961015;28;20502;-52
2022/08/24 07:46:14;;;;;;;4.73;2.07;;;;;;;23.48;60.75;100441.91;4965636;28;20562;-52
2022/08/24 07:48:41;;;;;;;2.40;2.20;;;;;;;23.47;60.12;100438.34;4967299;28;20482;-51
2022/08/24 07:51:09;;;;;;;7.83;0.93;;;;;;;23.51;61.02;100442.53;4962008;28;20951;-51
2022/08/24 07:53:36;;;;;;;2.57;1.90;;;;;;;23.80;59.80;100440.22;4960848;28;20455;-52
2022/08/24 07:56:19;;;;;;;8.40;2.00;;;;;;;24.51;57.70;100443.41;4963259;28;20447;-52
2022/08/24 07:58:46;;;;;;;4.00;1.63;;;;;;;24.56;57.75;100441.19;4967198;28;20852;-52
2022/08/24 08:01:12;;;;;;;8.10;2.30;;;;;;;24.20;58.64;100440.50;4965366;28;20450;-51
2022/08/24 08:03:40;;;;;;;2.30;1.97;;;;;;;24.41;57.84;100445.19;4960242;28;20490;-52
2022/08/24 08:06:08;;;;;;;4.10;1.47;;;;;;;24.46;58.84;100443.81;4961260;28;20451;-52
2022/08/24 08:08:41;;;;;;;3.47;1.33;;;;;;;25.18;56.32;100434.94;4967176;28;21058;-54
2022/08/24 08:11:09;;;;;;;1.47;1.37;;;;;;;24.83;57.02;100440.69;4967096;28;20454;-52
2022/08/24 08:13:36;;;;;;;15.73;2.10;;;;;;;24.96;57.29;100444.09;4948435;28;20530;-52
2022/08/24 08:16:04;;;;;;;1.80;1.00;;;;;;;25.35;56.71;100449.78;4960441;28;20462;-52
2022/08/24 08:18:34;;;;;;;0.73;0.73;;;;;;;25.58;56.27;100451.34;4966195;28;20467;-54
2022/08/24 08:21:03;;;;;;;7.90;1.73;;;;;;;25.75;55.14;100446.28;4967314;28;20476;-54
2022/08/24 08:26:18;;;;;;;2.03;1.47;;;;;;;26.50;53.34;100451.25;4961009;28;20454;-55
2022/08/24 08:28:45;;;;;;;1.30;1.20;;;;;;;26.10;52.90;100449.44;4962181;28;20553;-55
2022/08/24 08:31:12;;;;;;;8.43;0.97;;;;;;;26.43;52.41;100444.63;4967156;28;20461;-54
2022/08/24 08:33:39;;;;;;;13.37;1.47;;;;;;;26.48;52.37;100445.94;4965425;28;20451;-54
2022/08/24 08:36:12;;;;;;;3.13;2.60;;;;;;;26.39;52.99;100440.47;4963336;28;20451;-52
2022/08/24 08:38:38;;;;;;;8.03;1.57;;;;;;;26.55;51.94;100446.22;4966276;28;20959;-52
2022/08/24 08:41:16;;;;;;;1.40;1.30;;;;;;;26.29;52.43;100441.28;4960440;28;20803;-55
2022/08/24 08:44:11;;;;;;;0.90;0.90;;;;;;;26.66;51.74;100445.22;4960031;28;20553;-54
2022/08/24 08:46:58;;;;;;;1.67;1.57;;;;;;;26.76;50.51;100438.78;4962464;28;20803;-54
2022/08/24 08:49:56;;;;;;;1.73;1.17;;;;;;;27.43;49.50;100437.84;4949983;28;20842;-55
2022/08/24 08:53:04;;;;;;;8.23;1.57;;;;;;;27.49;48.75;100432.78;4960199;28;20454;-55
2022/08/24 08:55:34;;;;;;;19.57;1.07;;;;;;;27.35;48.37;100440.44;4960150;28;20451;-52
2022/08/24 08:58:20;;;;;;;1.30;0.93;;;;;;;27.12;48.37;100439.91;4961685;28;20448;-51
2022/08/24 09:00:55;;;;;;;1.93;1.30;;;;;;;27.23;48.52;100436.16;4951596;28;20902;-52
2022/08/24 09:03:31;;;;;;;1.60;1.50;;;;;;;27.51;47.95;100431.59;4963785;28;20540;-51
2022/08/24 09:06:09;;;;;;;1.00;0.90;;;;;;;27.47;45.92;100429.34;4964464;28;20447;-55
2022/08/24 09:08:38;;;;;;;2.10;0.90;;;;;;;28.07;44.77;100432.53;4970558;28;20466;-55
2022/08/24 09:11:35;;;;;;;1.43;1.33;;;;;;;27.70;45.62;100430.72;4969530;28;20825;-54
2022/08/24 09:14:09;;;;;;;1.50;1.00;;;;;;;27.92;45.05;100426.72;4957594;28;20450;-54
2022/08/24 09:17:02;;;;;;;6.53;1.63;;;;;;;28.02;43.56;100433.84;4963345;28;20446;-54
2022/08/24 09:19:32;;;;;;;1.33;1.23;;;;;;;28.48;42.96;100422.94;4963686;28;20475;-54
2022/08/24 09:22:13;;;;;;;5.27;0.93;;;;;;;28.57;42.52;100428.31;4968509;28;20542;-54
2022/08/24 09:24:53;;;;;;;13.23;1.13;;;;;;;28.16;43.82;100431.63;4970512;28;20494;-54
2022/08/24 09:27:38;;;;;;;1.40;1.17;;;;;;;28.24;43.98;100434.47;4969287;28;20452;-55
2022/08/24 09:30:15;;;;;;;1.47;0.83;;;;;;;28.45;44.11;100432.31;4968181;28;20481;-54
2022/08/24 09:33:05;;;;;;;3.53;0.97;;;;;;;28.71;42.77;100437.00;4969891;28;21019;-54
2022/08/24 09:35:32;;;;;;;3.03;1.83;;;;;;;28.72;42.31;100433.25;4969445;28;20450;-54
2022/08/24 09:38:00;;;;;;;3.80;1.20;;;;;;;28.42;43.08;100424.41;4963435;28;20457;-54
2022/08/24 09:40:41;;;;;;;0.80;0.80;;;;;;;28.51;42.04;100426.22;4963266;28;20461;-55
2022/08/24 09:43:16;;;;;;;2.13;1.20;;;;;;;28.85;42.06;100423.63;4967711;28;20447;-54
2022/08/24 09:46:03;;;;;;;6.90;1.40;;;;;;;28.87;42.45;100424.34;4967677;28;20462;-54
2022/08/24 09:49:08;;;;;;;6.10;1.63;;;;;;;28.83;42.25;100427.53;4950507;28;20474;-54
2022/08/24 09:52:11;;;;;;;1.00;0.90;;;;;;;28.94;41.49;100432.81;4961083;28;20898;-54
2022/08/24 09:55:00;;;;;;;3.63;1.50;;;;;;;29.24;41.28;100427.88;4928890;28;20451;-54
2022/08/24 09:57:45;;;;;;;5.23;1.40;;;;;;;29.59;41.46;100411.34;4950585;28;20454;-54
2022/08/24 10:00:40;;;;;;;1.07;1.00;;;;;;;29.38;40.86;100410.84;4971177;28;20864;-54
2022/08/24 10:03:37;;;;;;;1.93;1.83;;;;;;;29.20;41.71;100414.53;4956796;28;20447;-54
2022/08/24 10:06:39;;;;;;;5.03;1.37;;;;;;;29.45;41.16;100412.75;4948744;29;20450;-54
2022/08/24 10:09:36;;;;;;;1.00;0.93;;;;;;;30.08;40.41;100409.69;4950109;28;20474;-54
2022/08/24 10:12:15;;;;;;;2.23;1.47;;;;;;;30.13;39.13;100402.84;4968426;28;20462;-54
2022/08/24 10:14:47;;;;;;;1.57;1.00;;;;;;;30.40;38.62;100398.94;4958293;28;20461;-54
2022/08/24 10:17:28;;;;;;;1.33;1.10;;;;;;;30.15;38.78;100407.13;4966361;28;20447;-54
2022/08/24 10:20:19;;;;;;;11.23;1.47;;;;;;;29.56;39.50;100406.19;4943515;28;20467;-54
2022/08/24 10:23:03;;;;;;;1.20;1.03;;;;;;;29.85;40.05;100399.47;4956319;28;20448;-54
2022/08/24 10:25:36;;;;;;;1.93;1.03;;;;;;;30.05;39.44;100396.31;4956066;28;20476;-54
2022/08/24 10:28:33;;;;;;;1.63;1.13;;;;;;;30.35;39.08;100394.84;4961252;28;20525;-54
2022/08/24 10:31:13;;;;;;;1.93;1.43;;;;;;;30.12;38.75;100393.75;4946804;28;20510;-55
2022/08/24 10:34:20;;;;;;;2.40;1.33;;;;;;;30.66;38.41;100399.69;4955197;29;20443;-55
2022/08/24 10:37:11;;;;;;;1.00;1.00;;;;;;;30.40;38.05;100394.31;4946819;28;20454;-54
2022/08/24 10:40:22;;;;;;;0.73;0.70;;;;;;;30.47;37.74;100389.03;4943766;28;20475;-55
2022/08/24 10:45:56;;;;;;;1.40;1.30;;;;;;;31.13;36.78;100383.38;4957791;28;20495;-54
2022/08/24 10:48:28;;;;;;;1.03;0.93;;;;;;;31.33;36.46;100386.63;4963236;28;20478;-54
2022/08/24 10:51:25;;;;;;;2.13;1.20;;;;;;;30.96;36.75;100381.66;4943209;28;20459;-54
2022/08/24 10:53:53;;;;;;;3.13;1.47;;;;;;;30.80;36.73;100385.28;4968565;28;20953;-54
2022/08/24 10:56:34;;;;;;;1.27;1.20;;;;;;;31.15;36.02;100383.19;4966221;28;20446;-55
2022/08/24 10:59:23;;;;;;;3.57;1.47;;;;;;;31.25;35.69;100389.41;4956077;28;20478;-54
2022/08/24 11:02:26;;;;;;;1.63;1.10;;;;;;;31.40;34.94;100384.91;4958411;28;20450;-54
2022/08/24 11:04:58;;;;;;;2.47;1.37;;;;;;;31.46;35.78;100377.81;4971820;28;20501;-54
2022/08/24 11:07:26;;;;;;;1.10;1.00;;;;;;;31.52;35.19;100382.59;4964324;28;20447;-54
2022/08/24 11:09:59;;;;;;;1.63;1.53;;;;;;;31.71;35.28;100386.84;4946441;28;20486;-54
2022/08/24 11:12:35;;;;;;;6.33;1.20;;;;;;;31.80;34.99;100377.56;4968048;28;20450;-55
2022/08/24 11:15:20;;;;;;;2.93;1.60;;;;;;;31.82;34.93;100373.59;4964714;28;20444;-54
2022/08/24 11:17:58;;;;;;;0.93;0.87;;;;;;;31.95;35.11;100375.75;4950049;28;20459;-55
2022/08/24 11:20:40;;;;;;;20.47;2.40;;;;;;;31.73;35.41;100362.78;4964379;28;20451;-54
2022/08/24 11:23:24;;;;;;;2.70;0.87;;;;;;;31.58;34.51;100368.16;4956833;28;20439;-55
2022/08/24 11:26:02;;;;;;;0.93;0.83;;;;;;;31.58;34.69;100370.91;4956806;28;20522;-54
2022/08/24 11:28:36;;;;;;;1.13;1.10;;;;;;;32.00;33.83;100365.06;4965525;28;20487;-54
2022/08/24 11:31:03;;;;;;;0.80;0.80;;;;;;;31.93;33.36;100366.81;4971368;28;20469;-54
2022/08/24 11:33:43;;;;;;;0.80;0.60;;;;;;;32.06;33.13;100361.56;4964090;28;20499;-54
2022/08/24 11:36:18;;;;;;;1.63;1.20;;;;;;;31.99;33.96;100354.25;4974088;28;20450;-54
2022/08/24 11:38:48;;;;;;;9.40;0.90;;;;;;;32.12;33.56;100360.88;4961155;28;20472;-55
2022/08/24 11:41:29;;;;;;;1.13;1.07;;;;;;;31.73;33.54;100365.53;4966547;28;20455;-54
2022/08/24 11:43:58;;;;;;;0.80;0.77;;;;;;;32.05;33.40;100351.63;4957637;28;20494;-54
2022/08/24 11:46:39;;;;;;;2.13;1.93;;;;;;;32.32;32.68;100352.16;4964144;28;20506;-55
2022/08/24 11:49:24;;;;;;;1.30;1.17;;;;;;;32.28;31.34;100357.19;4959973;28;20478;-54
2022/08/24 11:52:18;;;;;;;5.60;1.33;;;;;;;32.31;31.25;100356.81;4946472;28;20920;-54
2022/08/24 11:54:54;;;;;;;1.50;1.17;;;;;;;32.53;31.30;100346.84;4966153;28;20447;-54
2022/08/24 11:57:34;;;;;;;1.03;0.80;;;;;;;32.67;30.78;100337.78;4949289;28;20549;-55
2022/08/24 12:00:11;;;;;;;0.80;0.80;;;;;;;32.48;31.17;100342.91;4969396;28;21049;-54